Time;durP1;ratioP1;P1;durP2;ratioP2;P2;SDS_P1;SDS_P2;PMS_P1;PMS_P2;Temp;Humidity;BMP_temperature;BMP_pressure;BME280_temperature;BME280_humidity;BME280_pressure;Samples;Min_cycle;Max_cycle;Signal;HPM_P1;HPM_P2
2021/09/29 00:00:36;;;;;;;0.65;0.60;;;17.80;48.40;;;;;;5049553;28;20231;-53
2021/09/29 00:03:09;;;;;;;0.77;0.70;;;17.80;48.40;;;;;;5058842;28;20507;-50
2021/09/29 00:05:39;;;;;;;0.70;0.60;;;17.80;48.40;;;;;;5070099;28;20213;-48
2021/09/29 00:08:10;;;;;;;0.70;0.60;;;17.90;48.40;;;;;;5067717;28;20231;-52
2021/09/29 00:10:41;;;;;;;0.55;0.50;;;17.90;48.40;;;;;;5052782;28;20328;-49
2021/09/29 00:13:11;;;;;;;0.55;0.55;;;17.90;48.30;;;;;;5069916;28;20234;-49
2021/09/29 00:15:42;;;;;;;0.80;0.60;;;17.90;48.30;;;;;;5069370;28;20268;-45
2021/09/29 00:18:14;;;;;;;1.00;0.60;;;18.00;48.30;;;;;;5070150;28;20214;-53
2021/09/29 00:20:46;;;;;;;0.70;0.70;;;18.00;48.30;;;;;;5069066;28;20207;-51
2021/09/29 00:23:16;;;;;;;0.50;0.50;;;18.10;48.30;;;;;;5069343;28;20203;-44
2021/09/29 00:25:47;;;;;;;0.50;0.50;;;18.10;48.30;;;;;;5068340;28;20223;-48
2021/09/29 00:28:17;;;;;;;0.70;0.60;;;18.10;48.30;;;;;;5068864;28;20272;-49
2021/09/29 00:31:02;;;;;;;0.45;0.45;;;18.20;48.20;;;;;;5068726;28;20230;-49
2021/09/29 00:33:36;;;;;;;0.52;0.50;;;18.20;48.20;;;;;;5068710;28;20260;-49
2021/09/29 00:36:06;;;;;;;0.63;0.63;;;18.20;48.20;;;;;;5068830;28;20195;-49
2021/09/29 00:38:37;;;;;;;0.60;0.60;;;18.20;48.70;;;;;;5068307;28;20292;-44
2021/09/29 00:41:07;;;;;;;0.50;0.50;;;18.30;48.20;;;;;;5066947;28;20191;-46
2021/09/29 00:43:38;;;;;;;0.70;0.60;;;18.30;48.10;;;;;;5071960;28;20195;-47
2021/09/29 00:46:08;;;;;;;0.30;0.30;;;18.30;48.10;;;;;;5069193;28;20644;-44
2021/09/29 00:48:41;;;;;;;0.30;0.30;;;18.40;47.90;;;;;;5052291;28;20250;-49
2021/09/29 00:51:12;;;;;;;0.30;0.30;;;18.40;47.50;;;;;;5053284;28;20199;-46
2021/09/29 00:53:42;;;;;;;0.20;0.20;;;18.50;47.20;;;;;;5070258;28;20209;-47
2021/09/29 00:56:12;;;;;;;0.68;0.30;;;18.50;47.00;;;;;;5072798;28;20241;-48
2021/09/29 00:58:43;;;;;;;0.30;0.20;;;18.60;46.90;;;;;;5072987;28;20247;-49
2021/09/29 01:01:13;;;;;;;0.20;0.20;;;18.70;46.80;;;;;;5073646;28;20238;-42
2021/09/29 01:03:46;;;;;;;0.85;0.20;;;18.70;46.60;;;;;;5070018;28;20229;-44
2021/09/29 01:06:23;;;;;;;0.20;0.20;;;18.80;46.50;;;;;;5073389;28;20685;-54
2021/09/29 01:08:57;;;;;;;0.20;0.20;;;18.90;46.40;;;;;;5073376;28;20265;-47
2021/09/29 01:11:30;;;;;;;0.20;0.10;;;18.90;46.30;;;;;;5072477;28;20225;-47
2021/09/29 01:14:04;;;;;;;0.95;0.20;;;19.00;46.20;;;;;;5073198;28;20612;-55
2021/09/29 01:16:35;;;;;;;0.30;0.30;;;19.10;46.10;;;;;;5070811;28;20226;-51
2021/09/29 01:19:10;;;;;;;0.30;0.30;;;19.10;46.00;;;;;;5073349;28;20253;-49
2021/09/29 01:21:50;;;;;;;0.20;0.20;;;19.20;45.80;;;;;;5055105;28;20234;-45
2021/09/29 01:24:22;;;;;;;0.20;0.20;;;19.20;45.70;;;;;;5053291;28;20191;-43
2021/09/29 01:26:55;;;;;;;0.20;0.20;;;19.30;45.60;;;;;;5053208;28;20195;-46
2021/09/29 01:29:25;;;;;;;0.20;0.20;;;19.40;45.50;;;;;;5053226;28;20311;-44
2021/09/29 01:31:55;;;;;;;0.80;0.20;;;19.40;45.30;;;;;;5053847;28;20199;-46
2021/09/29 01:34:26;;;;;;;0.20;0.20;;;19.50;45.20;;;;;;5072927;28;20230;-44
2021/09/29 01:36:56;;;;;;;0.20;0.20;;;19.50;45.00;;;;;;5072716;28;20237;-41
2021/09/29 01:39:27;;;;;;;0.20;0.20;;;19.60;44.80;;;;;;5069323;28;20254;-46
2021/09/29 01:42:00;;;;;;;0.20;0.20;;;19.60;44.80;;;;;;5054467;28;20217;-47
2021/09/29 01:44:31;;;;;;;0.20;0.20;;;19.70;44.80;;;;;;5052623;28;20691;-49
2021/09/29 01:47:02;;;;;;;0.20;0.20;;;19.70;44.80;;;;;;5052278;28;20192;-53
2021/09/29 01:49:37;;;;;;;0.10;0.10;;;19.80;44.80;;;;;;5052011;28;20219;-52
2021/09/29 01:52:08;;;;;;;0.17;0.17;;;19.80;44.80;;;;;;5051540;28;20233;-48
2021/09/29 01:54:40;;;;;;;0.20;0.20;;;19.90;44.80;;;;;;5052221;28;20227;-52
2021/09/29 01:57:12;;;;;;;0.47;0.20;;;20.00;44.80;;;;;;5051550;28;20238;-45
2021/09/29 01:59:45;;;;;;;2.33;0.40;;;20.00;44.80;;;;;;5052085;28;20489;-46
2021/09/29 02:02:16;;;;;;;0.20;0.20;;;20.10;44.80;;;;;;5055369;28;20241;-51
2021/09/29 02:04:51;;;;;;;1.85;0.20;;;20.10;44.80;;;;;;5072469;28;20195;-53
2021/09/29 02:07:21;;;;;;;0.38;0.30;;;20.10;44.70;;;;;;5071559;28;20237;-48
2021/09/29 02:09:52;;;;;;;0.80;0.30;;;20.20;44.70;;;;;;5060190;28;20521;-49
2021/09/29 02:12:24;;;;;;;1.35;0.10;;;20.20;44.60;;;;;;5051664;28;20230;-49
2021/09/29 02:14:54;;;;;;;0.30;0.20;;;20.30;44.60;;;;;;5051864;28;20249;-44
2021/09/29 02:17:25;;;;;;;0.50;0.30;;;20.30;44.40;;;;;;5051822;28;20227;-50
2021/09/29 02:19:57;;;;;;;1.52;0.30;;;20.40;44.50;;;;;;5055454;28;20296;-50
2021/09/29 02:22:28;;;;;;;1.67;0.17;;;20.40;44.30;;;;;;5071228;28;20222;-47
2021/09/29 02:24:58;;;;;;;0.88;0.30;;;20.50;44.40;;;;;;5068545;28;20195;-44
2021/09/29 02:27:30;;;;;;;1.27;0.25;;;20.50;44.30;;;;;;5071744;28;20230;-44
2021/09/29 02:30:01;;;;;;;0.50;0.30;;;20.60;44.30;;;;;;5061612;28;20702;-45
2021/09/29 02:32:31;;;;;;;0.13;0.13;;;20.60;44.20;;;;;;5056740;28;20693;-53
2021/09/29 02:35:02;;;;;;;0.40;0.20;;;20.70;44.20;;;;;;5071098;28;20277;-47
2021/09/29 02:37:32;;;;;;;0.60;0.25;;;20.80;44.20;;;;;;5070499;28;20230;-47
2021/09/29 02:40:03;;;;;;;0.20;0.20;;;20.80;44.00;;;;;;5071034;28;20286;-53
2021/09/29 02:42:35;;;;;;;0.20;0.20;;;20.80;44.00;;;;;;5070538;28;20285;-54
2021/09/29 02:45:06;;;;;;;0.75;0.35;;;20.90;43.90;;;;;;5070584;28;20288;-48
2021/09/29 02:47:36;;;;;;;0.10;0.10;;;20.90;43.80;;;;;;5069583;28;20291;-50
2021/09/29 02:50:07;;;;;;;0.28;0.28;;;20.90;43.70;;;;;;5060785;28;20241;-49
2021/09/29 02:52:38;;;;;;;0.30;0.30;;;21.00;43.70;;;;;;5050895;28;20249;-52
2021/09/29 02:55:09;;;;;;;0.32;0.30;;;21.00;43.60;;;;;;5062119;28;20280;-51
2021/09/29 02:57:41;;;;;;;0.20;0.20;;;21.10;43.50;;;;;;5071013;28;20281;-54
2021/09/29 03:00:13;;;;;;;0.22;0.20;;;21.10;43.50;;;;;;5061418;28;20725;-51
2021/09/29 03:02:43;;;;;;;0.77;0.10;;;21.20;43.40;;;;;;5071331;28;20628;-53
2021/09/29 03:05:14;;;;;;;0.30;0.22;;;21.20;43.20;;;;;;5067181;28;20222;-51
2021/09/29 03:07:44;;;;;;;0.28;0.22;;;21.30;43.20;;;;;;5071011;28;20249;-51
2021/09/29 03:10:15;;;;;;;0.25;0.20;;;21.30;43.10;;;;;;5070440;28;20226;-45
2021/09/29 03:12:47;;;;;;;0.45;0.20;;;21.40;43.00;;;;;;5070245;28;20515;-53
2021/09/29 03:15:17;;;;;;;0.50;0.30;;;21.40;43.00;;;;;;5069041;28;20242;-55
2021/09/29 03:17:48;;;;;;;0.95;0.30;;;21.40;43.00;;;;;;5070087;28;20229;-48
2021/09/29 03:20:18;;;;;;;0.20;0.20;;;21.50;43.00;;;;;;5058948;28;20238;-50
2021/09/29 03:22:48;;;;;;;0.30;0.20;;;21.50;43.00;;;;;;5049908;28;20234;-51
2021/09/29 03:25:19;;;;;;;0.98;0.20;;;21.50;43.00;;;;;;5050633;28;20278;-52
2021/09/29 03:27:51;;;;;;;0.30;0.30;;;21.60;43.00;;;;;;5049906;28;20272;-51
2021/09/29 03:30:22;;;;;;;0.25;0.20;;;21.60;42.80;;;;;;5050452;28;20557;-52
2021/09/29 03:32:52;;;;;;;1.15;0.20;;;21.70;42.90;;;;;;5058022;28;20291;-48
2021/09/29 03:35:23;;;;;;;0.95;0.30;;;21.70;42.60;;;;;;5070216;28;20199;-51
2021/09/29 03:37:56;;;;;;;0.22;0.22;;;21.70;42.50;;;;;;5069093;28;20718;-49
2021/09/29 03:40:29;;;;;;;0.28;0.28;;;21.80;42.70;;;;;;5069750;28;20195;-48
2021/09/29 03:43:01;;;;;;;0.28;0.20;;;21.80;42.70;;;;;;5070247;28;20241;-53
2021/09/29 03:45:31;;;;;;;1.77;0.25;;;21.80;42.60;;;;;;5069822;28;20241;-49
2021/09/29 03:48:02;;;;;;;1.05;0.32;;;21.90;42.50;;;;;;5069815;28;20307;-57
2021/09/29 03:50:33;;;;;;;0.82;0.30;;;21.90;42.60;;;;;;5069538;28;20255;-58
2021/09/29 03:53:03;;;;;;;3.40;0.50;;;22.00;42.70;;;;;;5070349;28;20205;-53
2021/09/29 03:55:34;;;;;;;1.67;0.30;;;22.00;42.80;;;;;;5069619;28;20604;-52
2021/09/29 03:58:06;;;;;;;1.08;0.30;;;22.00;42.90;;;;;;5069940;28;20257;-55
2021/09/29 04:00:36;;;;;;;0.95;0.40;;;22.00;43.10;;;;;;5069134;28;20233;-54
2021/09/29 04:03:07;;;;;;;1.13;0.50;;;22.10;43.30;;;;;;5070169;28;20249;-52
2021/09/29 04:05:38;;;;;;;2.25;0.38;;;22.10;43.20;;;;;;5070247;28;20686;-51
2021/09/29 04:08:08;;;;;;;0.68;0.22;;;22.10;43.20;;;;;;5070251;28;20305;-51
2021/09/29 04:10:39;;;;;;;6.80;0.30;;;22.10;43.40;;;;;;5068746;28;20260;-46
2021/09/29 04:13:11;;;;;;;1.65;0.43;;;22.20;43.50;;;;;;5070055;28;20195;-53
2021/09/29 04:15:41;;;;;;;0.35;0.20;;;22.20;43.50;;;;;;5070257;28;20234;-52
2021/09/29 04:18:12;;;;;;;0.55;0.30;;;22.20;43.40;;;;;;5072815;28;20656;-55
2021/09/29 04:20:44;;;;;;;0.40;0.20;;;22.20;43.60;;;;;;5074242;28;20615;-47
2021/09/29 04:23:14;;;;;;;0.20;0.20;;;22.20;43.60;;;;;;5074350;28;20206;-47
2021/09/29 04:25:48;;;;;;;0.20;0.20;;;22.20;43.60;;;;;;5074130;28;20733;-49
2021/09/29 04:28:21;;;;;;;1.02;0.30;;;22.30;43.70;;;;;;5073760;28;20233;-50
2021/09/29 04:30:51;;;;;;;0.43;0.28;;;22.30;43.70;;;;;;5073817;28;20203;-52
2021/09/29 04:33:22;;;;;;;1.00;0.30;;;22.40;43.80;;;;;;5073468;28;20202;-50
2021/09/29 04:35:52;;;;;;;0.63;0.30;;;22.40;43.80;;;;;;5074322;28;20190;-49
2021/09/29 04:38:23;;;;;;;1.48;0.40;;;22.40;43.80;;;;;;5074031;28;20264;-50
2021/09/29 04:40:54;;;;;;;1.08;0.20;;;22.40;43.80;;;;;;5073738;28;20191;-49
2021/09/29 04:43:26;;;;;;;0.25;0.25;;;22.40;43.70;;;;;;5073733;28;20195;-48
2021/09/29 04:45:56;;;;;;;1.17;0.20;;;22.40;43.70;;;;;;5073562;28;20223;-47
2021/09/29 04:48:27;;;;;;;0.63;0.20;;;22.40;43.60;;;;;;5073614;28;20250;-53
2021/09/29 04:50:57;;;;;;;0.52;0.30;;;22.50;43.60;;;;;;5073763;28;20301;-51
2021/09/29 04:53:28;;;;;;;0.40;0.40;;;22.40;43.50;;;;;;5071541;28;20198;-49
2021/09/29 04:56:00;;;;;;;0.40;0.40;;;22.40;43.50;;;;;;5074259;28;20199;-45
2021/09/29 04:58:32;;;;;;;0.30;0.20;;;22.50;43.40;;;;;;5073750;28;20214;-52
2021/09/29 05:01:03;;;;;;;0.20;0.20;;;22.50;43.30;;;;;;5073632;28;20191;-56
2021/09/29 05:03:33;;;;;;;0.63;0.25;;;22.50;43.30;;;;;;5072862;28;20206;-49
2021/09/29 05:06:04;;;;;;;0.10;0.10;;;22.50;43.30;;;;;;5055945;28;20199;-53
2021/09/29 05:08:37;;;;;;;0.80;0.32;;;22.50;43.30;;;;;;5053061;28;20636;-50
2021/09/29 05:11:08;;;;;;;0.93;0.20;;;22.50;43.30;;;;;;5052870;28;20195;-54
2021/09/29 05:13:40;;;;;;;0.88;0.20;;;22.50;43.40;;;;;;5053161;28;20655;-51
2021/09/29 05:16:11;;;;;;;1.02;0.30;;;22.50;43.50;;;;;;5053599;28;20191;-50
2021/09/29 05:18:41;;;;;;;0.20;0.20;;;22.60;43.60;;;;;;5053235;28;20277;-53
2021/09/29 05:21:11;;;;;;;0.22;0.20;;;22.60;43.70;;;;;;5053179;28;20242;-48
2021/09/29 05:23:42;;;;;;;0.38;0.17;;;22.60;43.60;;;;;;5053749;28;20223;-53
2021/09/29 05:26:14;;;;;;;0.30;0.13;;;22.60;43.60;;;;;;5053636;28;20234;-56
2021/09/29 05:28:47;;;;;;;1.23;0.22;;;22.60;43.50;;;;;;5052497;28;20353;-53
2021/09/29 05:31:18;;;;;;;0.55;0.20;;;22.60;43.50;;;;;;5052732;28;20205;-47
2021/09/29 05:33:48;;;;;;;0.20;0.20;;;22.60;43.50;;;;;;5069288;28;20303;-54
2021/09/29 05:36:18;;;;;;;0.52;0.20;;;22.60;43.50;;;;;;5073239;28;20230;-50
2021/09/29 05:38:49;;;;;;;0.50;0.13;;;22.70;43.50;;;;;;5073106;28;20253;-54
2021/09/29 05:41:19;;;;;;;0.35;0.30;;;22.60;43.40;;;;;;5073168;28;20233;-51
2021/09/29 05:43:52;;;;;;;0.10;0.10;;;22.70;43.40;;;;;;5073376;28;20615;-53
2021/09/29 05:46:22;;;;;;;0.20;0.20;;;22.60;43.40;;;;;;5073131;28;20324;-48
2021/09/29 05:49:11;;;;;;;0.43;0.20;;;22.60;43.30;;;;;;5072904;28;20258;-47
2021/09/29 05:51:45;;;;;;;0.20;0.20;;;22.60;43.40;;;;;;5072837;28;20207;-44
2021/09/29 05:54:15;;;;;;;0.22;0.20;;;22.60;43.50;;;;;;5072691;28;20256;-50
2021/09/29 05:56:46;;;;;;;0.20;0.20;;;22.60;43.50;;;;;;5072281;28;20194;-52
2021/09/29 05:59:18;;;;;;;0.20;0.20;;;22.60;43.60;;;;;;5072230;28;20265;-44
2021/09/29 06:01:51;;;;;;;0.20;0.20;;;22.60;43.50;;;;;;5072381;28;20237;-51
2021/09/29 06:04:21;;;;;;;0.20;0.20;;;22.60;43.50;;;;;;5073248;28;20281;-51
2021/09/29 06:06:52;;;;;;;0.30;0.30;;;22.60;43.40;;;;;;5072826;28;20634;-49
2021/09/29 06:09:23;;;;;;;0.20;0.20;;;22.60;43.40;;;;;;5072450;28;20227;-54
2021/09/29 06:12:17;;;;;;;0.20;0.20;;;22.60;43.40;;;;;;5072257;28;20202;-54
2021/09/29 06:14:53;;;;;;;0.40;0.22;;;22.60;43.50;;;;;;5072469;28;20562;-49
2021/09/29 06:17:24;;;;;;;0.30;0.30;;;22.60;43.50;;;;;;5072533;28;20669;-49
2021/09/29 06:19:54;;;;;;;0.47;0.20;;;22.50;43.50;;;;;;5071755;28;20257;-52
2021/09/29 06:22:25;;;;;;;0.40;0.30;;;22.50;43.50;;;;;;5072011;28;20675;-48
2021/09/29 06:24:55;;;;;;;0.10;0.10;;;22.50;43.50;;;;;;5072000;28;20233;-44
2021/09/29 06:27:25;;;;;;;0.28;0.20;;;22.50;43.50;;;;;;5072324;28;20282;-52
2021/09/29 06:29:58;;;;;;;2.20;0.20;;;22.50;43.50;;;;;;5071739;28;20265;-56
2021/09/29 06:32:28;;;;;;;0.38;0.20;;;22.40;43.50;;;;;;5072112;28;20207;-51
2021/09/29 06:34:59;;;;;;;0.40;0.17;;;22.40;43.50;;;;;;5072381;28;20222;-51
2021/09/29 06:37:31;;;;;;;0.43;0.20;;;22.40;43.60;;;;;;5071963;28;20564;-49
2021/09/29 06:40:02;;;;;;;0.20;0.20;;;22.40;43.60;;;;;;5070810;28;20194;-46
2021/09/29 06:42:32;;;;;;;0.20;0.20;;;22.30;43.70;;;;;;5071382;28;20283;-49
2021/09/29 06:45:05;;;;;;;1.73;0.70;;;22.30;43.70;;;;;;5071026;28;20230;-49
2021/09/29 06:47:39;;;;;;;0.50;0.40;;;22.30;43.70;;;;;;5071140;28;20293;-46
2021/09/29 06:50:10;;;;;;;0.73;0.40;;;22.30;43.80;;;;;;5071707;28;20237;-53
2021/09/29 06:52:41;;;;;;;0.40;0.40;;;22.20;43.80;;;;;;5059498;28;20286;-48
2021/09/29 06:55:12;;;;;;;6.35;1.95;;;22.20;43.80;;;;;;5065854;28;20242;-51
2021/09/29 06:57:42;;;;;;;10.63;4.10;;;22.20;43.80;;;;;;5051059;28;20218;-44
2021/09/29 07:00:15;;;;;;;3.75;1.42;;;22.20;43.80;;;;;;5051390;28;20225;-51
2021/09/29 07:02:46;;;;;;;4.35;1.60;;;22.20;43.90;;;;;;5057209;28;20258;-52
2021/09/29 07:05:17;;;;;;;5.32;2.00;;;22.10;43.90;;;;;;5071347;28;20237;-48
2021/09/29 07:07:47;;;;;;;4.32;1.90;;;22.10;43.90;;;;;;5070942;28;20284;-55
2021/09/29 07:10:18;;;;;;;5.40;2.28;;;22.10;43.80;;;;;;5069728;28;20304;-49
2021/09/29 07:12:48;;;;;;;6.88;2.30;;;22.00;43.70;;;;;;5067228;28;20222;-51
2021/09/29 07:15:20;;;;;;;3.75;2.10;;;22.00;43.70;;;;;;5069358;28;20241;-45
2021/09/29 07:17:55;;;;;;;5.03;2.35;;;22.00;43.80;;;;;;5070668;28;20254;-55
2021/09/29 07:20:26;;;;;;;7.75;2.58;;;21.90;43.70;;;;;;5069196;28;20217;-54
2021/09/29 07:22:57;;;;;;;4.40;2.10;;;21.90;43.80;;;;;;5070300;28;20565;-55
2021/09/29 07:25:29;;;;;;;6.75;2.47;;;21.80;43.80;;;;;;5052057;28;20203;-46
2021/09/29 07:28:00;;;;;;;5.47;2.65;;;21.80;43.90;;;;;;5050871;28;20219;-49
2021/09/29 07:30:32;;;;;;;8.43;2.30;;;21.80;44.00;;;;;;5050925;28;20259;-53
2021/09/29 07:33:04;;;;;;;7.65;3.00;;;21.80;44.10;;;;;;5051213;28;21031;-47
2021/09/29 07:35:37;;;;;;;6.45;3.05;;;21.70;44.10;;;;;;5069423;28;20195;-49
2021/09/29 07:38:07;;;;;;;6.45;2.70;;;21.70;44.20;;;;;;5068438;28;20339;-51
2021/09/29 07:40:38;;;;;;;5.25;2.60;;;21.70;44.50;;;;;;5069283;28;20222;-50
2021/09/29 07:43:08;;;;;;;6.45;2.30;;;21.60;44.20;;;;;;5065429;28;20321;-48
2021/09/29 07:45:40;;;;;;;6.82;3.00;;;21.60;44.20;;;;;;5050101;28;20638;-44
2021/09/29 07:48:11;;;;;;;6.70;2.80;;;21.60;44.30;;;;;;5053956;28;20253;-52
2021/09/29 07:50:41;;;;;;;5.57;2.67;;;21.50;44.20;;;;;;5070370;28;20258;-52
2021/09/29 07:53:13;;;;;;;5.03;2.38;;;21.50;44.80;;;;;;5071470;28;20229;-51
2021/09/29 07:55:44;;;;;;;5.80;2.80;;;21.50;44.30;;;;;;5074449;28;20198;-51
2021/09/29 07:58:14;;;;;;;4.45;2.33;;;21.50;44.30;;;;;;5072860;28;20305;-49
2021/09/29 08:00:47;;;;;;;6.88;2.60;;;21.40;44.30;;;;;;5074245;28;20227;-50
2021/09/29 08:03:17;;;;;;;4.82;2.53;;;21.40;44.30;;;;;;5067620;28;20226;-50
2021/09/29 08:05:47;;;;;;;5.53;2.30;;;21.40;44.40;;;;;;5053621;28;20234;-52
2021/09/29 08:08:18;;;;;;;4.30;2.65;;;21.30;44.40;;;;;;5054546;28;20277;-50
2021/09/29 08:10:48;;;;;;;4.80;2.47;;;21.30;44.50;;;;;;5053454;28;20274;-49
2021/09/29 08:13:19;;;;;;;3.53;2.03;;;21.20;44.50;;;;;;5060190;28;20259;-52
2021/09/29 08:15:51;;;;;;;5.88;2.30;;;21.30;44.60;;;;;;5072706;28;20230;-49
2021/09/29 08:18:21;;;;;;;4.80;2.08;;;21.20;44.60;;;;;;5073147;28;20246;-49
2021/09/29 08:20:53;;;;;;;4.18;2.30;;;21.20;44.60;;;;;;5073028;28;20289;-48
2021/09/29 08:23:26;;;;;;;5.60;2.65;;;21.20;44.70;;;;;;5066718;28;20191;-48
2021/09/29 08:29:03;;;;;;;4.88;2.28;;;21.10;44.70;;;;;;5053884;28;20269;-50
2021/09/29 08:31:37;;;;;;;4.13;1.92;;;21.10;44.70;;;;;;5062603;28;20202;-48
2021/09/29 08:34:21;;;;;;;4.47;2.40;;;21.10;44.80;;;;;;5061375;28;20195;-49
2021/09/29 08:37:00;;;;;;;6.40;2.00;;;21.10;44.80;;;;;;5058844;28;20234;-52
2021/09/29 08:39:35;;;;;;;5.00;2.28;;;21.00;44.80;;;;;;5073825;28;20309;-54
2021/09/29 08:42:13;;;;;;;6.43;2.35;;;21.00;44.80;;;;;;5072645;28;20240;-49
2021/09/29 08:44:50;;;;;;;2.75;2.00;;;20.90;44.80;;;;;;5071588;28;20294;-51
2021/09/29 08:47:27;;;;;;;4.40;2.40;;;20.90;44.90;;;;;;5073029;28;20199;-51
2021/09/29 08:50:06;;;;;;;4.38;2.15;;;20.90;45.00;;;;;;5072677;28;20231;-50
2021/09/29 08:52:54;;;;;;;2.85;2.05;;;20.80;45.00;;;;;;5073383;28;20273;-47
2021/09/29 09:15:38;;;;;;;4.07;2.00;;;20.60;45.10;;;;;;5010597;28;20266;-46
2021/09/29 09:18:08;;;;;;;4.88;2.00;;;20.60;45.10;;;;;;5053762;28;20222;-47
2021/09/29 09:20:42;;;;;;;3.72;1.70;;;20.50;45.20;;;;;;5072335;28;20226;-46
2021/09/29 09:23:12;;;;;;;4.13;1.98;;;20.50;45.20;;;;;;5068925;28;20206;-50
2021/09/29 09:25:43;;;;;;;3.10;1.75;;;20.50;45.30;;;;;;5072310;28;20230;-46
2021/09/29 09:28:27;;;;;;;2.75;1.65;;;20.50;45.30;;;;;;5072083;28;20565;-54
2021/09/29 09:31:00;;;;;;;4.10;2.08;;;20.40;45.20;;;;;;5072360;28;20256;-46
2021/09/29 09:33:31;;;;;;;3.85;1.90;;;20.40;45.30;;;;;;5064416;28;20279;-51
2021/09/29 09:36:03;;;;;;;5.40;2.20;;;20.40;45.30;;;;;;5059385;28;20234;-51
2021/09/29 09:38:36;;;;;;;4.22;2.30;;;20.40;45.40;;;;;;5070628;28;20265;-47
2021/09/29 09:41:06;;;;;;;3.70;2.03;;;20.40;45.40;;;;;;5055253;28;20245;-49
2021/09/29 09:43:37;;;;;;;5.90;2.30;;;20.40;45.40;;;;;;5065480;28;20238;-47
2021/09/29 09:46:20;;;;;;;5.97;2.47;;;20.30;45.40;;;;;;5061028;28;20231;-49
2021/09/29 09:48:59;;;;;;;5.13;2.10;;;20.30;45.40;;;;;;5071654;28;20276;-45
2021/09/29 09:51:32;;;;;;;6.80;2.50;;;20.30;45.40;;;;;;5070338;28;20581;-50
2021/09/29 09:54:02;;;;;;;6.50;3.00;;;20.30;45.40;;;;;;5072525;28;20645;-50
2021/09/29 09:56:33;;;;;;;4.78;2.38;;;20.20;45.40;;;;;;5057562;28;20672;-52
2021/09/29 09:59:03;;;;;;;6.40;2.55;;;20.20;45.40;;;;;;5051920;28;20691;-47
2021/09/29 10:01:34;;;;;;;4.18;2.40;;;20.20;45.40;;;;;;5064081;28;20246;-46
2021/09/29 10:04:11;;;;;;;5.53;2.20;;;20.20;45.50;;;;;;5071913;28;20622;-48
2021/09/29 10:06:43;;;;;;;4.22;2.13;;;20.20;45.50;;;;;;5071413;28;20701;-49
2021/09/29 10:09:25;;;;;;;4.97;2.60;;;20.10;45.50;;;;;;5070214;28;20280;-52
2021/09/29 10:12:11;;;;;;;6.20;2.38;;;20.10;45.50;;;;;;5060518;28;20646;-50
2021/09/29 10:23:15;;;;;;;5.88;2.60;;;20.00;45.60;;;;;;5071378;28;20244;-50
2021/09/29 10:26:12;;;;;;;4.15;2.25;;;20.00;45.60;;;;;;5071321;28;20194;-50
2021/09/29 10:28:43;;;;;;;5.57;2.20;;;19.90;45.60;;;;;;5071530;28;20242;-48
2021/09/29 10:31:22;;;;;;;5.63;2.50;;;19.90;45.60;;;;;;5071499;28;20673;-48
2021/09/29 10:34:04;;;;;;;4.25;2.45;;;19.90;45.60;;;;;;5071938;28;20609;-49
2021/09/29 10:36:47;;;;;;;4.13;2.17;;;19.90;45.70;;;;;;5070815;28;20603;-52
2021/09/29 10:42:22;;;;;;;6.75;2.25;;;19.80;45.70;;;;;;5050040;28;20198;-48
2021/09/29 10:47:53;;;;;;;5.03;2.72;;;19.80;45.80;;;;;;5068194;28;20197;-49
2021/09/29 11:04:53;;;;;;;3.38;2.22;;;19.60;45.80;;;;;;5058271;28;20690;-50
2021/09/29 11:07:49;;;;;;;5.03;2.45;;;19.60;45.80;;;;;;5065442;28;20586;-43
2021/09/29 11:10:54;;;;;;;5.53;2.35;;;19.60;45.90;;;;;;5062790;28;20223;-46
2021/09/29 11:30:52;;;;;;;5.28;2.30;;;19.40;46.10;;;;;;5109500;27;20573;-50
2021/09/29 11:33:33;;;;;;;5.25;2.38;;;19.40;46.10;;;;;;5109200;28;20215;-50
2021/09/29 11:36:10;;;;;;;5.55;2.05;;;19.30;46.10;;;;;;5109034;28;20197;-45
2021/09/29 12:09:39;;;;;;;5.47;2.50;;;19.00;46.30;;;;;;5088519;28;20291;-47
2021/09/29 12:12:21;;;;;;;5.07;2.28;;;19.00;46.30;;;;;;5087771;28;20194;-49
2021/09/29 12:14:52;;;;;;;4.00;2.17;;;19.00;46.40;;;;;;5088034;28;20193;-50
2021/09/29 12:17:26;;;;;;;4.15;2.33;;;19.00;46.40;;;;;;5101452;28;20217;-48
2021/09/29 12:20:00;;;;;;;2.78;1.70;;;18.90;46.40;;;;;;5088420;28;20667;-48
2021/09/29 12:22:32;;;;;;;3.83;2.38;;;18.90;46.40;;;;;;5087910;28;20715;-48
2021/09/29 12:25:06;;;;;;;3.85;2.15;;;18.90;46.40;;;;;;5087605;28;20281;-48
2021/09/29 12:27:38;;;;;;;5.07;2.45;;;18.90;46.50;;;;;;5087166;28;20225;-47
2021/09/29 12:30:20;;;;;;;4.78;2.08;;;18.90;47.10;;;;;;5087269;28;20693;-48
2021/09/29 12:33:09;;;;;;;3.65;1.92;;;18.80;46.50;;;;;;5087879;28;20203;-49
2021/09/29 12:35:47;;;;;;;4.13;2.03;;;18.80;46.50;;;;;;5087720;28;20199;-49
2021/09/29 12:38:17;;;;;;;3.67;2.03;;;18.80;46.50;;;;;;5087726;28;20249;-46
2021/09/29 12:40:49;;;;;;;4.63;2.00;;;18.80;46.60;;;;;;5080975;28;20231;-49
2021/09/29 12:43:22;;;;;;;2.63;1.90;;;18.80;46.60;;;;;;5073265;28;20248;-41
2021/09/29 12:45:53;;;;;;;5.60;2.13;;;18.70;46.60;;;;;;5074314;28;20195;-45
2021/09/29 12:48:25;;;;;;;3.25;1.90;;;18.70;46.70;;;;;;5074067;28;20265;-48
2021/09/29 12:50:58;;;;;;;4.30;2.30;;;18.70;46.70;;;;;;5073901;28;20226;-47
2021/09/29 12:53:32;;;;;;;4.53;2.47;;;18.60;46.70;;;;;;5074013;28;20233;-46
2021/09/29 12:56:03;;;;;;;3.92;2.10;;;18.60;46.70;;;;;;5073302;28;20195;-48
2021/09/29 12:58:34;;;;;;;3.25;1.88;;;18.60;46.80;;;;;;5073099;28;20237;-49
2021/09/29 13:01:04;;;;;;;3.08;1.90;;;18.60;46.80;;;;;;5073904;28;20243;-46
2021/09/29 13:03:34;;;;;;;5.38;2.53;;;18.60;46.80;;;;;;5073969;28;20237;-51
2021/09/29 13:06:07;;;;;;;4.50;2.35;;;18.50;46.70;;;;;;5073354;28;20231;-46
2021/09/29 13:08:37;;;;;;;3.08;1.83;;;18.50;46.80;;;;;;5073673;28;20219;-47
2021/09/29 13:11:08;;;;;;;3.63;2.10;;;18.50;46.80;;;;;;5073662;28;20286;-52
2021/09/29 13:13:39;;;;;;;3.55;1.85;;;18.50;46.90;;;;;;5073649;28;20198;-47
2021/09/29 13:16:09;;;;;;;3.95;1.85;;;18.50;46.90;;;;;;5073398;28;20559;-48
2021/09/29 13:18:46;;;;;;;4.93;2.10;;;18.50;46.90;;;;;;5074980;28;20645;-44
2021/09/29 13:21:24;;;;;;;4.53;2.10;;;18.40;46.90;;;;;;5073493;28;20198;-48
2021/09/29 13:23:57;;;;;;;4.55;2.25;;;18.40;46.90;;;;;;5075431;28;20198;-48
2021/09/29 13:26:52;;;;;;;4.18;1.80;;;18.40;47.00;;;;;;5073426;28;20195;-43
2021/09/29 13:37:44;;;;;;;5.18;2.05;;;18.30;47.00;;;;;;5073060;28;20624;-47
2021/09/29 13:40:15;;;;;;;3.78;2.25;;;18.20;47.00;;;;;;5073102;28;20689;-50
2021/09/29 13:42:46;;;;;;;4.75;2.08;;;18.20;47.00;;;;;;5073443;28;20230;-47
2021/09/29 13:45:16;;;;;;;2.80;1.75;;;18.20;47.10;;;;;;5072882;28;20241;-48
2021/09/29 13:47:46;;;;;;;3.72;1.90;;;18.20;47.10;;;;;;5072180;28;20290;-47
2021/09/29 13:50:19;;;;;;;3.35;2.08;;;18.20;47.20;;;;;;5072272;28;20321;-50
2021/09/29 13:52:51;;;;;;;2.67;1.70;;;18.20;47.20;;;;;;5071952;28;20256;-48
2021/09/29 13:55:23;;;;;;;3.88;2.00;;;18.10;47.10;;;;;;5072856;28;20283;-46
2021/09/29 13:57:58;;;;;;;4.30;1.95;;;18.10;47.10;;;;;;5072703;28;20195;-47
2021/09/29 14:00:33;;;;;;;3.97;1.73;;;18.10;47.20;;;;;;5072570;28;20190;-49
2021/09/29 14:28:43;;;;;;;3.72;1.70;;;17.90;47.40;;;;;;5088190;28;20746;-50
2021/09/29 14:31:17;;;;;;;3.05;1.75;;;17.90;47.40;;;;;;5087763;28;20267;-47
2021/09/29 14:33:49;;;;;;;2.42;1.58;;;17.90;47.40;;;;;;5088099;28;20708;-48
2021/09/29 14:36:19;;;;;;;2.75;1.63;;;17.80;47.40;;;;;;5088441;28;20642;-47
2021/09/29 14:38:51;;;;;;;3.05;1.30;;;17.80;47.40;;;;;;5087943;28;20222;-47
2021/09/29 14:41:22;;;;;;;2.92;1.67;;;17.80;47.50;;;;;;5088457;28;20230;-49
2021/09/29 14:43:53;;;;;;;4.13;2.03;;;17.80;48.00;;;;;;5088536;28;20286;-45
2021/09/29 14:46:23;;;;;;;3.30;1.80;;;17.80;47.50;;;;;;5088165;28;20226;-45
2021/09/29 14:48:54;;;;;;;2.15;1.40;;;17.80;47.50;;;;;;5087622;28;20328;-44
2021/09/29 14:51:24;;;;;;;3.28;1.48;;;17.80;47.50;;;;;;5087730;28;20612;-48
2021/09/29 14:53:59;;;;;;;4.32;2.05;;;17.70;47.50;;;;;;5087947;28;20202;-47
2021/09/29 14:56:29;;;;;;;2.47;1.50;;;17.70;47.50;;;;;;5087551;28;20193;-47
2021/09/29 14:59:01;;;;;;;3.17;1.52;;;17.70;47.60;;;;;;5086938;28;20262;-44
2021/09/29 15:01:31;;;;;;;2.28;1.50;;;17.70;47.60;;;;;;5087698;28;20201;-47
2021/09/29 15:04:03;;;;;;;3.30;1.40;;;17.70;47.60;;;;;;5087655;28;20298;-45
2021/09/29 15:06:33;;;;;;;1.67;1.35;;;17.70;47.60;;;;;;5087816;28;20557;-47
2021/09/29 15:09:05;;;;;;;2.33;1.40;;;17.60;47.60;;;;;;5088167;28;20246;-50
2021/09/29 15:11:36;;;;;;;2.67;1.73;;;17.60;47.60;;;;;;5087466;28;20202;-48
2021/09/29 15:14:10;;;;;;;3.53;1.60;;;17.60;47.60;;;;;;5087210;28;20194;-50
2021/09/29 15:16:50;;;;;;;3.55;1.50;;;17.60;47.60;;;;;;5085507;28;20394;-45
2021/09/29 15:19:32;;;;;;;2.35;1.35;;;17.60;47.60;;;;;;5079528;28;20276;-44
2021/09/29 15:22:11;;;;;;;2.20;1.13;;;17.60;47.60;;;;;;5073971;28;20198;-51
2021/09/29 15:24:56;;;;;;;1.77;1.40;;;17.60;47.60;;;;;;5074025;28;20226;-47
2021/09/29 15:47:06;;;;;;;2.20;1.30;;;17.50;47.70;;;;;;5061410;28;20202;-51
2021/09/29 15:49:49;;;;;;;1.50;1.30;;;17.40;47.80;;;;;;5073782;28;20306;-54